Time;durP1;ratioP1;P1;durP2;ratioP2;P2;SDS_P1;SDS_P2;PMS_P1;PMS_P2;Temp;Humidity;BMP_temperature;BMP_pressure;BME280_temperature;BME280_humidity;BME280_pressure;Samples;Min_cycle;Max_cycle;Signal;HPM_P1;HPM_P2
2022/07/04 00:01:06;;;;;;;6.35;2.40;;;16.60;64.90;;;;;;5048805;28;20076;-74
2022/07/04 00:03:32;;;;;;;7.38;1.85;;;16.50;64.60;;;;;;5034747;28;20037;-74
2022/07/04 00:05:57;;;;;;;6.68;2.05;;;16.50;64.70;;;;;;5035376;28;20057;-74
2022/07/04 00:08:23;;;;;;;8.52;2.13;;;16.50;64.70;;;;;;5030052;28;20124;-74
2022/07/04 00:10:49;;;;;;;7.82;2.30;;;16.50;64.40;;;;;;5029987;28;20044;-75
2022/07/04 00:13:15;;;;;;;9.30;2.25;;;16.50;64.50;;;;;;5032184;28;20092;-75
2022/07/04 00:15:40;;;;;;;5.68;1.92;;;16.50;64.50;;;;;;5032125;28;20053;-74
2022/07/04 00:18:06;;;;;;;11.85;2.30;;;16.50;64.10;;;;;;5043240;28;20043;-74
2022/07/04 00:20:32;;;;;;;8.07;2.03;;;16.50;64.40;;;;;;5044104;28;20025;-74
2022/07/04 00:22:58;;;;;;;10.80;2.28;;;16.50;64.50;;;;;;5034609;28;20086;-74
2022/07/04 00:25:24;;;;;;;7.55;2.28;;;;;;;;;;5035937;28;20504;-74
2022/07/04 00:27:50;;;;;;;8.43;2.10;;;;;;;;;;5039533;28;20442;-74
2022/07/04 00:30:16;;;;;;;7.85;2.00;;;;;;;;;;5047530;28;20106;-74
2022/07/04 00:32:42;;;;;;;7.43;1.75;;;;;;;;;;5039696;28;20045;-74
2022/07/04 00:35:08;;;;;;;5.85;2.00;;;16.90;65.10;;;;;;5034295;28;20025;-74
2022/07/04 00:37:34;;;;;;;8.52;2.08;;;16.30;63.90;;;;;;5029829;28;20025;-74
2022/07/04 00:40:00;;;;;;;5.85;1.98;;;;;;;;;;5043162;28;20098;-74
2022/07/04 00:42:25;;;;;;;10.57;2.03;;;16.30;63.50;;;;;;5042089;28;20033;-74
2022/07/04 00:44:51;;;;;;;10.23;2.17;;;16.30;65.30;;;;;;5046981;28;20027;-75
2022/07/04 00:47:17;;;;;;;9.00;1.80;;;16.30;66.10;;;;;;5039726;28;20036;-74
2022/07/04 00:49:42;;;;;;;8.70;2.35;;;14.70;68.30;;;;;;5032689;28;20488;-74
2022/07/04 00:52:08;;;;;;;6.60;2.00;;;16.30;66.20;;;;;;5041614;28;20029;-74
2022/07/04 00:54:35;;;;;;;9.68;2.55;;;16.30;65.00;;;;;;5039772;28;20040;-74
2022/07/04 00:57:00;;;;;;;8.07;2.00;;;16.20;66.20;;;;;;5037984;28;20053;-74
2022/07/04 00:59:27;;;;;;;7.50;1.90;;;;;;;;;;5031371;28;20059;-74
2022/07/04 01:01:53;;;;;;;7.30;2.00;;;;;;;;;;5031451;28;20021;-74
2022/07/04 01:04:18;;;;;;;6.63;2.10;;;18.60;73.40;;;;;;5031269;28;20021;-74
2022/07/04 01:06:45;;;;;;;7.53;2.08;;;16.20;67.60;;;;;;5031861;28;20037;-75
2022/07/04 01:09:11;;;;;;;7.72;2.20;;;16.20;67.10;;;;;;5036578;28;20084;-74
2022/07/04 01:11:37;;;;;;;9.40;1.75;;;;;;;;;;5034540;28;20033;-74
2022/07/04 01:14:05;;;;;;;12.43;1.75;;;;;;;;;;5032305;28;20040;-74
2022/07/04 01:16:31;;;;;;;3.83;1.58;;;;;;;;;;5043669;28;20018;-74
2022/07/04 01:18:57;;;;;;;11.95;1.90;;;;;;;;;;5038217;28;20108;-74
2022/07/04 01:21:23;;;;;;;5.57;1.60;;;;;;;;;;5040532;28;20036;-74
2022/07/04 01:23:49;;;;;;;9.40;2.22;;;;;;;;;;5036556;28;20026;-74
2022/07/04 01:26:15;;;;;;;5.80;1.73;;;;;;;;;;5040591;28;20033;-74
2022/07/04 01:28:41;;;;;;;6.03;1.85;;;16.80;74.40;;;;;;5045347;28;20029;-74
2022/07/04 01:31:07;;;;;;;5.43;2.00;;;16.30;73.10;;;;;;5034306;28;20500;-74
2022/07/04 01:33:33;;;;;;;8.75;1.90;;;16.00;66.40;;;;;;5033938;28;20128;-74
2022/07/04 01:35:59;;;;;;;9.73;1.83;;;;;;;;;;5033803;28;20025;-74
2022/07/04 01:38:25;;;;;;;7.57;1.90;;;;;;;;;;5039389;28;20037;-74
2022/07/04 01:40:51;;;;;;;7.13;2.22;;;15.90;66.30;;;;;;5043713;28;20515;-74
2022/07/04 01:43:17;;;;;;;6.10;2.00;;;;;;;;;;5032692;28;20053;-74
2022/07/04 01:45:43;;;;;;;8.57;2.13;;;;;;;;;;5032930;28;20037;-74
2022/07/04 01:48:10;;;;;;;6.53;2.38;;;15.90;67.00;;;;;;5030803;28;20056;-74
2022/07/04 01:50:37;;;;;;;8.05;2.28;;;15.90;68.20;;;;;;5032249;28;20026;-74
2022/07/04 01:53:03;;;;;;;6.57;2.00;;;;;;;;;;5040660;28;20029;-74
2022/07/04 01:55:29;;;;;;;7.38;2.17;;;17.20;74.30;;;;;;5044874;28;20094;-74
2022/07/04 01:57:55;;;;;;;12.18;2.28;;;15.90;67.90;;;;;;5033018;28;20057;-74
2022/07/04 02:03:07;;;;;;;5.65;1.90;;;;;;;;;;5039969;28;20036;-74
2022/07/04 02:05:33;;;;;;;8.68;2.40;;;;;;;;;;5044368;28;20021;-74
2022/07/04 02:07:59;;;;;;;5.78;2.10;;;18.40;77.60;;;;;;5039992;28;20494;-74
2022/07/04 02:10:24;;;;;;;6.53;2.20;;;16.90;75.80;;;;;;5035947;28;20108;-74
2022/07/04 02:13:03;;;;;;;8.23;2.08;;;;;;;;;;5035803;28;20037;-74
2022/07/04 02:15:37;;;;;;;5.40;2.25;;;15.70;76.40;;;;;;5040101;28;20025;-74
2022/07/04 02:18:06;;;;;;;7.35;2.40;;;15.70;67.60;;;;;;5040499;28;20459;-74
2022/07/04 02:20:32;;;;;;;13.20;2.85;;;;;;;;;;5040794;28;20029;-74
2022/07/04 02:22:58;;;;;;;10.57;2.40;;;;;;;;;;5041857;28;20528;-74
2022/07/04 02:25:24;;;;;;;7.68;2.05;;;16.20;79.30;;;;;;5034409;28;20187;-74
2022/07/04 02:27:50;;;;;;;7.15;2.08;;;;;;;;;;5035952;28;20037;-74
2022/07/04 02:30:16;;;;;;;7.03;2.15;;;15.70;68.90;;;;;;5045868;28;20487;-74
2022/07/04 02:32:42;;;;;;;5.55;1.83;;;;;;;;;;5040008;28;20076;-74
2022/07/04 02:35:09;;;;;;;8.05;2.20;;;14.50;74.90;;;;;;5044099;28;20060;-74
2022/07/04 02:37:35;;;;;;;7.85;1.90;;;;;;;;;;5048403;28;20090;-74
2022/07/04 02:40:01;;;;;;;8.32;2.40;;;;;;;;;;5038069;28;20025;-74
2022/07/04 02:42:31;;;;;;;7.00;2.17;;;16.90;77.00;;;;;;5041715;28;20056;-74
2022/07/04 02:44:57;;;;;;;9.02;2.67;;;15.60;70.20;;;;;;5042113;28;20025;-74
2022/07/04 02:47:23;;;;;;;8.02;2.63;;;15.60;72.00;;;;;;5039826;28;20052;-74
2022/07/04 02:49:49;;;;;;;5.78;1.90;;;15.60;70.70;;;;;;5035545;28;20021;-74
2022/07/04 02:52:15;;;;;;;9.95;2.40;;;;;;;;;;5036360;28;20064;-74
2022/07/04 02:54:41;;;;;;;9.35;2.58;;;15.50;69.20;;;;;;5038354;28;20029;-74
2022/07/04 02:57:08;;;;;;;8.63;2.50;;;;;;;;;;5035006;28;20108;-74
2022/07/04 02:59:34;;;;;;;6.10;2.50;;;;;;;;;;5037369;28;20067;-74
2022/07/04 03:02:00;;;;;;;7.97;2.20;;;;;;;;;;5039360;28;20029;-74
2022/07/04 03:04:26;;;;;;;7.05;2.20;;;;;;;;;;5042877;28;20075;-74
2022/07/04 03:06:52;;;;;;;7.78;2.33;;;15.30;69.50;;;;;;5045974;28;20075;-74
2022/07/04 03:09:17;;;;;;;5.72;1.92;;;15.30;70.80;;;;;;5037656;28;20041;-74
2022/07/04 03:11:44;;;;;;;6.57;2.05;;;;;;;;;;5034078;28;20033;-74
2022/07/04 03:14:10;;;;;;;8.00;2.40;;;;;;;;;;5033468;28;20048;-74
2022/07/04 03:16:36;;;;;;;7.90;2.20;;;14.10;73.60;;;;;;5045675;28;20954;-74
2022/07/04 03:19:01;;;;;;;5.93;2.10;;;15.20;70.00;;;;;;5046236;28;20424;-74
2022/07/04 03:21:27;;;;;;;5.32;2.10;;;15.10;70.20;;;;;;5038812;28;20079;-74
2022/07/04 03:23:59;;;;;;;6.15;1.92;;;15.10;69.70;;;;;;5035512;28;20033;-74
2022/07/04 03:26:25;;;;;;;8.90;2.28;;;15.00;69.40;;;;;;5040520;28;20040;-74
2022/07/04 03:28:52;;;;;;;5.90;2.08;;;15.00;69.00;;;;;;5036560;28;20087;-74
2022/07/04 03:31:17;;;;;;;5.70;1.90;;;14.00;72.40;;;;;;5040738;28;20025;-74
2022/07/04 03:33:43;;;;;;;5.00;1.80;;;14.90;69.60;;;;;;5034375;28;20429;-74
2022/07/04 03:36:09;;;;;;;5.32;2.20;;;14.90;69.10;;;;;;5035156;28;20026;-74
2022/07/04 03:38:35;;;;;;;3.88;1.80;;;14.90;69.20;;;;;;5036190;28;20036;-74
2022/07/04 03:41:01;;;;;;;4.32;1.90;;;14.80;69.30;;;;;;5033034;28;20025;-74
2022/07/04 03:43:27;;;;;;;5.72;2.10;;;14.90;68.90;;;;;;5032037;28;20033;-74
2022/07/04 03:45:53;;;;;;;5.70;2.28;;;14.80;68.50;;;;;;5046428;28;20029;-74
2022/07/04 03:48:18;;;;;;;5.28;1.98;;;14.80;70.30;;;;;;5041919;28;20396;-74
2022/07/04 03:50:44;;;;;;;7.15;2.13;;;14.80;69.30;;;;;;5041232;28;20112;-74
2022/07/04 03:53:10;;;;;;;4.50;2.03;;;14.80;69.50;;;;;;5035728;28;20045;-74
2022/07/04 03:55:35;;;;;;;7.25;2.20;;;14.70;70.30;;;;;;5038261;28;20026;-74
2022/07/04 03:58:04;;;;;;;14.32;2.47;;;14.70;70.50;;;;;;5040709;28;20033;-74
2022/07/04 04:00:30;;;;;;;12.55;2.10;;;14.70;77.40;;;;;;5040678;28;20032;-74
2022/07/04 04:02:56;;;;;;;8.50;1.92;;;;;;;;;;5040790;28;20029;-74
2022/07/04 04:05:30;;;;;;;8.60;2.10;;;14.00;79.10;;;;;;5038050;28;20541;-75
2022/07/04 04:08:01;;;;;;;5.93;2.22;;;14.60;70.50;;;;;;5038112;28;20022;-72
2022/07/04 04:10:30;;;;;;;9.27;2.20;;;14.70;78.80;;;;;;5035638;28;20022;-73
2022/07/04 04:12:57;;;;;;;4.95;1.83;;;14.50;69.00;;;;;;5043878;28;20051;-77
2022/07/04 04:15:23;;;;;;;6.10;1.92;;;;;;;;;;5035345;28;20025;-78
2022/07/04 04:17:49;;;;;;;5.28;2.20;;;;;;;;;;5036261;28;20765;-78
2022/07/04 04:20:15;;;;;;;6.93;2.10;;;14.40;80.80;;;;;;5032643;28;20480;-77
2022/07/04 04:22:41;;;;;;;7.70;2.30;;;13.80;80.70;;;;;;5044554;28;20027;-78
2022/07/04 04:25:08;;;;;;;7.53;2.08;;;14.50;81.20;;;;;;5042229;28;20037;-78
2022/07/04 04:27:33;;;;;;;6.70;2.40;;;13.30;81.10;;;;;;5043518;28;20026;-78
2022/07/04 04:29:59;;;;;;;5.97;1.92;;;15.30;81.30;;;;;;5036948;28;20029;-81
2022/07/04 04:32:24;;;;;;;5.65;1.90;;;14.30;81.50;;;;;;5031176;28;20041;-80
2022/07/04 04:34:50;;;;;;;7.07;2.10;;;14.90;81.00;;;;;;5040647;28;20034;-77
2022/07/04 04:37:16;;;;;;;7.63;2.28;;;15.40;81.40;;;;;;5045278;28;20051;-78
2022/07/04 04:39:41;;;;;;;7.20;2.40;;;14.10;81.90;;;;;;5043762;28;20119;-82
2022/07/04 04:42:07;;;;;;;9.85;2.33;;;14.30;82.50;;;;;;5045614;28;20115;-77
2022/07/04 04:44:33;;;;;;;6.50;2.00;;;14.50;82.80;;;;;;5031005;28;20110;-80
2022/07/04 04:46:59;;;;;;;5.78;1.85;;;;;;;;;;5033968;28;20489;-78
2022/07/04 04:49:25;;;;;;;5.38;2.10;;;;;;;;;;5045940;28;20525;-91
2022/07/04 04:51:50;;;;;;;9.85;4.43;;;14.90;78.50;;;;;;5043173;28;20021;-84
2022/07/04 04:54:16;;;;;;;7.20;2.08;;;;;;;;;;5040141;28;20124;-76
2022/07/04 04:56:42;;;;;;;4.03;1.88;;;14.50;69.80;;;;;;5040975;28;20017;-76
2022/07/04 04:59:09;;;;;;;8.88;2.15;;;14.40;82.20;;;;;;5047120;28;20044;-79
2022/07/04 05:01:35;;;;;;;6.88;2.20;;;15.10;82.40;;;;;;5031339;28;20385;-80
2022/07/04 05:04:01;;;;;;;8.65;2.20;;;15.30;82.50;;;;;;5035440;28;20778;-81
2022/07/04 05:06:26;;;;;;;6.35;2.03;;;14.20;82.30;;;;;;5036733;28;20062;-80
2022/07/04 05:08:52;;;;;;;7.85;2.03;;;;;;;;;;5032533;28;20057;-81
2022/07/04 05:11:18;;;;;;;10.35;2.22;;;14.60;82.20;;;;;;5036880;28;20060;-80
2022/07/04 05:13:44;;;;;;;6.18;1.90;;;15.00;83.60;;;;;;5039345;28;20651;-85
2022/07/04 05:16:09;;;;;;;8.40;3.45;;;14.20;82.80;;;;;;5041058;28;20032;-90
2022/07/04 05:18:35;;;;;;;8.18;2.50;;;15.20;83.90;;;;;;5048216;28;20032;-87
2022/07/04 05:21:01;;;;;;;5.45;2.08;;;15.00;83.80;;;;;;5037875;28;20018;-87
2022/07/04 05:23:27;;;;;;;8.30;2.30;;;14.70;83.20;;;;;;5035121;28;20028;-90
2022/07/04 05:25:53;;;;;;;7.35;2.70;;;;;;;;;;5040231;28;20104;-78
2022/07/04 05:28:18;;;;;;;5.88;2.70;;;15.40;84.70;;;;;;5037348;28;20451;-82
2022/07/04 05:30:44;;;;;;;7.85;2.50;;;15.00;85.20;;;;;;5039922;28;20025;-82
2022/07/04 05:33:11;;;;;;;8.13;2.70;;;;;;;;;;5045093;28;20064;-76
2022/07/04 05:35:37;;;;;;;8.75;2.47;;;;;;;;;;5037764;28;20021;-77
2022/07/04 05:38:03;;;;;;;7.47;2.60;;;14.00;84.70;;;;;;5039582;28;20116;-78
2022/07/04 05:40:29;;;;;;;7.13;2.58;;;15.80;86.30;;;;;;5046362;28;20029;-81
2022/07/04 05:42:56;;;;;;;9.77;4.35;;;15.30;86.10;;;;;;5033485;28;20026;-80
2022/07/04 05:45:22;;;;;;;7.25;2.83;;;15.70;86.30;;;;;;5030795;28;20112;-87
2022/07/04 05:47:48;;;;;;;7.45;3.22;;;15.20;86.00;;;;;;5033265;28;20060;-80
2022/07/04 05:50:13;;;;;;;11.90;3.38;;;15.90;86.20;;;;;;5045196;28;20052;-79
2022/07/04 05:52:39;;;;;;;7.70;2.70;;;16.10;86.40;;;;;;5058522;28;20025;-79
2022/07/04 05:55:07;;;;;;;9.98;3.25;;;16.00;84.90;;;;;;5040940;28;20519;-80
2022/07/04 05:57:33;;;;;;;9.80;2.97;;;16.10;84.90;;;;;;5057578;28;20487;-79
2022/07/04 05:59:58;;;;;;;9.18;2.60;;;16.70;85.60;;;;;;5039598;28;20030;-79
2022/07/04 06:02:24;;;;;;;9.70;2.90;;;16.30;77.90;;;;;;5031917;28;20112;-80
2022/07/04 06:04:50;;;;;;;6.90;2.58;;;16.30;85.90;;;;;;5034690;28;27666;-80
2022/07/04 06:07:17;;;;;;;6.25;2.80;;;;;;;;;;5041423;28;20029;-80
2022/07/04 06:09:43;;;;;;;7.15;2.45;;;15.20;83.30;;;;;;5042933;28;20028;-79
2022/07/04 06:12:09;;;;;;;7.45;2.33;;;16.30;84.50;;;;;;5041289;28;20040;-79
2022/07/04 06:14:35;;;;;;;8.02;2.85;;;16.60;74.60;;;;;;5038977;28;20037;-79
2022/07/04 06:17:01;;;;;;;11.35;2.53;;;16.70;83.50;;;;;;5034238;28;20041;-79
2022/07/04 06:19:26;;;;;;;8.25;2.63;;;17.50;83.80;;;;;;5043670;28;20043;-78
2022/07/04 06:21:52;;;;;;;5.60;2.55;;;16.90;74.10;;;;;;5035558;28;20381;-79
2022/07/04 06:24:18;;;;;;;7.40;1.92;;;17.10;73.80;;;;;;5032863;28;20552;-79
2022/07/04 06:26:44;;;;;;;9.35;2.13;;;17.10;81.50;;;;;;5038485;28;20039;-79
2022/07/04 06:29:10;;;;;;;7.78;2.30;;;17.20;81.60;;;;;;5031134;28;20496;-81
2022/07/04 06:31:36;;;;;;;7.60;2.25;;;18.00;82.60;;;;;;5046014;28;20530;-79
2022/07/04 06:36:46;;;;;;;6.60;1.70;;;17.80;80.30;;;;;;5033277;28;20063;-79
2022/07/04 06:39:12;;;;;;;5.45;1.83;;;18.50;69.80;;;;;;5045416;28;20052;-79
2022/07/04 06:41:38;;;;;;;6.38;1.80;;;18.70;77.50;;;;;;5043665;28;20384;-81
2022/07/04 06:44:04;;;;;;;7.68;1.73;;;19.00;68.00;;;;;;5046283;28;20029;-78
2022/07/04 06:46:30;;;;;;;6.40;1.90;;;19.30;67.00;;;;;;5044433;28;20029;-80
2022/07/04 06:48:56;;;;;;;9.02;1.80;;;19.60;65.90;;;;;;5047316;28;20025;-75
2022/07/04 06:51:22;;;;;;;8.45;1.83;;;19.90;64.80;;;;;;5045166;28;20060;-82
2022/07/04 06:53:48;;;;;;;6.43;1.58;;;;;;;;;;5041975;28;20041;-81
2022/07/04 06:56:14;;;;;;;6.45;2.00;;;21.60;64.30;;;;;;5045870;28;20039;-81
2022/07/04 06:58:40;;;;;;;5.20;1.60;;;22.20;68.20;;;;;;5044399;28;20451;-81
2022/07/04 07:01:06;;;;;;;5.70;1.63;;;23.50;63.50;;;;;;5037224;28;20033;-81
2022/07/04 07:03:32;;;;;;;5.45;1.60;;;25.80;61.20;;;;;;5038744;28;20101;-81
2022/07/04 07:05:58;;;;;;;5.88;1.70;;;23.20;51.40;;;;;;5039091;28;20104;-82
2022/07/04 07:08:24;;;;;;;6.35;1.50;;;25.50;44.40;;;;;;5044714;28;20663;-81
2022/07/04 07:10:49;;;;;;;5.43;1.58;;;26.40;42.10;;;;;;5036210;28;20040;-81
2022/07/04 07:13:15;;;;;;;6.80;1.45;;;26.80;40.90;;;;;;5042042;28;20037;-81
2022/07/04 07:15:41;;;;;;;6.78;1.70;;;25.70;51.20;;;;;;5047336;28;20098;-80
2022/07/04 07:18:07;;;;;;;4.28;1.23;;;24.60;50.10;;;;;;5039276;28;20021;-80
2022/07/04 07:20:33;;;;;;;7.68;1.40;;;23.80;58.70;;;;;;5039336;28;20473;-80
2022/07/04 07:23:04;;;;;;;5.63;1.40;;;24.10;57.90;;;;;;5042208;28;20021;-81
2022/07/04 07:25:31;;;;;;;7.72;1.35;;;;;;;;;;5036956;28;20094;-80
2022/07/04 07:27:57;;;;;;;6.57;1.30;;;25.20;42.90;;;;;;5045053;28;20598;-80
2022/07/04 07:30:23;;;;;;;9.30;1.30;;;26.70;51.30;;;;;;5045405;28;20407;-81
2022/07/04 07:32:49;;;;;;;5.25;1.30;;;26.80;51.30;;;;;;5034409;28;20089;-81
2022/07/04 07:35:15;;;;;;;4.30;1.30;;;26.60;46.20;;;;;;5035261;28;20530;-81
2022/07/04 07:37:41;;;;;;;5.70;1.20;;;26.70;46.60;;;;;;5045268;28;20029;-80
2022/07/04 07:40:08;;;;;;;5.63;1.20;;;26.50;40.30;;;;;;5044293;28;20053;-80
2022/07/04 07:42:34;;;;;;;5.65;1.20;;;24.50;51.70;;;;;;5040306;28;20043;-80
2022/07/04 07:45:00;;;;;;;4.07;1.33;;;;;;;;;;5040674;28;20528;-80
2022/07/04 07:47:25;;;;;;;4.35;1.38;;;23.90;46.10;;;;;;5045280;28;20037;-80
2022/07/04 07:49:51;;;;;;;8.60;1.80;;;24.00;46.80;;;;;;5044898;28;20040;-81
2022/07/04 07:52:17;;;;;;;7.07;1.30;;;24.70;45.00;;;;;;5043069;28;20573;-81
2022/07/04 07:54:43;;;;;;;6.35;1.20;;;25.50;43.40;;;;;;5040692;28;20073;-80
2022/07/04 07:57:09;;;;;;;6.72;1.13;;;25.70;42.00;;;;;;5043053;28;20036;-81
2022/07/04 07:59:35;;;;;;;6.07;1.20;;;25.40;42.50;;;;;;5034188;28;20033;-81
2022/07/04 08:02:00;;;;;;;7.10;1.00;;;24.90;42.90;;;;;;5042266;28;20030;-80
2022/07/04 08:04:35;;;;;;;5.22;1.20;;;25.60;47.40;;;;;;5042811;28;20434;-80
2022/07/04 08:07:09;;;;;;;6.10;1.10;;;24.10;45.30;;;;;;5040653;28;20112;-81
2022/07/04 08:09:35;;;;;;;5.40;1.00;;;24.00;44.40;;;;;;5045666;28;20573;-80
2022/07/04 08:12:02;;;;;;;6.07;1.10;;;23.80;43.50;;;;;;5039938;28;20067;-80
2022/07/04 08:14:29;;;;;;;4.13;0.90;;;23.70;44.70;;;;;;5038741;28;20061;-81
2022/07/04 08:16:56;;;;;;;6.65;1.10;;;23.70;45.80;;;;;;5043157;28;20595;-80
2022/07/04 08:19:22;;;;;;;5.82;1.10;;;23.70;45.70;;;;;;5032330;28;20033;-80
2022/07/04 08:21:48;;;;;;;4.38;0.88;;;23.80;45.30;;;;;;5037377;28;20103;-80
2022/07/04 08:24:14;;;;;;;4.55;0.95;;;24.00;45.20;;;;;;5034137;28;20141;-80
2022/07/04 08:26:40;;;;;;;5.88;1.10;;;24.00;45.50;;;;;;5037298;28;20029;-81
2022/07/04 08:29:06;;;;;;;4.85;0.88;;;24.10;44.90;;;;;;5040169;28;20847;-81
2022/07/04 08:31:32;;;;;;;9.50;1.92;;;24.20;45.10;;;;;;5039818;28;20108;-80
2022/07/04 08:33:58;;;;;;;7.85;1.25;;;24.20;44.70;;;;;;5036119;28;20049;-81
2022/07/04 08:36:23;;;;;;;5.57;1.25;;;24.30;43.60;;;;;;5033013;28;20021;-80
2022/07/04 08:38:49;;;;;;;4.57;0.90;;;24.30;43.50;;;;;;5034293;28;20035;-80
2022/07/04 08:41:16;;;;;;;5.15;1.08;;;24.20;43.70;;;;;;5044726;28;20056;-80
2022/07/04 08:43:42;;;;;;;4.85;1.10;;;24.30;43.30;;;;;;5043353;28;20025;-80
2022/07/04 08:46:10;;;;;;;4.07;1.00;;;24.30;43.10;;;;;;5037990;28;20040;-80
2022/07/04 08:48:41;;;;;;;5.53;1.00;;;24.10;42.80;;;;;;5040915;28;20067;-80
2022/07/04 08:51:19;;;;;;;4.43;1.00;;;24.10;43.20;;;;;;5038347;28;20055;-80
2022/07/04 08:53:56;;;;;;;5.95;1.10;;;24.00;43.70;;;;;;5037685;28;20095;-81
2022/07/04 08:59:09;;;;;;;3.47;1.08;;;24.60;42.60;;;;;;5044780;28;20501;-81
2022/07/04 09:01:35;;;;;;;6.45;1.08;;;25.00;40.90;;;;;;5043721;28;20025;-80
2022/07/04 09:04:01;;;;;;;3.67;0.93;;;25.00;40.30;;;;;;5041859;28;20052;-81
2022/07/04 09:06:29;;;;;;;3.70;0.82;;;24.80;41.10;;;;;;5028433;28;20688;-83
2022/07/04 09:08:54;;;;;;;3.58;1.00;;;24.60;41.40;;;;;;5037463;28;20050;-78
2022/07/04 09:11:20;;;;;;;3.60;1.00;;;24.60;41.20;;;;;;5041032;28;20424;-78
2022/07/04 09:13:47;;;;;;;3.92;0.88;;;25.00;40.10;;;;;;5032168;28;20045;-79
2022/07/04 09:16:12;;;;;;;3.58;0.90;;;25.40;39.40;;;;;;5046128;28;20075;-79
2022/07/04 09:18:38;;;;;;;3.90;0.98;;;25.90;38.90;;;;;;5038301;28;20448;-78
2022/07/04 09:21:06;;;;;;;5.55;1.10;;;26.50;38.60;;;;;;5034837;28;20163;-80
2022/07/04 09:23:40;;;;;;;5.00;1.00;;;27.10;36.70;;;;;;5042538;28;20399;-79
2022/07/04 09:26:14;;;;;;;3.50;0.80;;;27.90;34.20;;;;;;5047361;28;20029;-79
2022/07/04 09:28:49;;;;;;;2.92;0.90;;;28.80;32.70;;;;;;5046221;28;20029;-80
2022/07/04 09:31:21;;;;;;;4.68;1.20;;;29.70;31.50;;;;;;5043731;28;20515;-80
2022/07/04 09:33:49;;;;;;;4.50;1.00;;;30.20;30.50;;;;;;5042248;28;20049;-80
2022/07/04 09:36:16;;;;;;;5.03;1.10;;;31.50;28.50;;;;;;5038462;28;20039;-80
2022/07/04 09:38:42;;;;;;;3.25;0.90;;;32.40;26.90;;;;;;5035475;28;20056;-80
2022/07/04 09:41:34;;;;;;;5.20;0.90;;;33.10;26.20;;;;;;5041322;28;20033;-80
2022/07/04 09:44:03;;;;;;;5.90;1.13;;;33.00;25.20;;;;;;5041909;28;21274;-80
2022/07/04 09:46:29;;;;;;;5.95;0.95;;;34.50;24.70;;;;;;5040548;28;20036;-80
2022/07/04 09:48:55;;;;;;;3.22;0.70;;;34.90;24.00;;;;;;5045958;28;20037;-80
2022/07/04 09:51:43;;;;;;;5.55;0.98;;;35.50;24.00;;;;;;5039862;28;20057;-80
2022/07/04 09:54:35;;;;;;;3.85;0.90;;;36.00;23.40;;;;;;5041478;28;20116;-80
2022/07/04 09:57:02;;;;;;;6.50;0.93;;;36.50;23.10;;;;;;5043106;28;20052;-80
2022/07/04 09:59:29;;;;;;;4.00;0.90;;;37.00;22.50;;;;;;5041082;28;20063;-80
2022/07/04 10:02:08;;;;;;;2.55;0.70;;;37.40;21.60;;;;;;5029460;28;20115;-80
2022/07/04 10:04:46;;;;;;;4.03;0.87;;;37.70;20.70;;;;;;5043430;28;20041;-81
2022/07/04 10:07:13;;;;;;;3.10;0.75;;;37.80;20.60;;;;;;5042682;28;20032;-81
2022/07/04 10:09:38;;;;;;;3.33;0.80;;;37.90;20.50;;;;;;5036904;28;20568;-81
2022/07/04 10:12:04;;;;;;;7.10;0.90;;;38.20;20.70;;;;;;5036937;28;20068;-80
2022/07/04 10:14:30;;;;;;;5.03;1.00;;;38.50;20.50;;;;;;5032470;28;20056;-81
2022/07/04 10:16:56;;;;;;;5.43;0.90;;;38.80;20.00;;;;;;5036332;28;20105;-80
2022/07/04 10:19:22;;;;;;;5.50;0.80;;;38.80;20.20;;;;;;5046664;28;20029;-81
2022/07/04 10:21:49;;;;;;;4.20;0.90;;;37.80;20.80;;;;;;5037101;28;20025;-78
2022/07/04 10:24:16;;;;;;;5.95;1.00;;;38.30;20.20;;;;;;5042683;28;20055;-80
2022/07/04 10:26:43;;;;;;;3.63;0.80;;;39.10;19.70;;;;;;5046261;28;20100;-80
2022/07/04 10:29:11;;;;;;;3.08;0.80;;;39.10;19.40;;;;;;5046033;28;20120;-80
2022/07/04 10:31:37;;;;;;;4.82;0.80;;;39.30;19.50;;;;;;5035808;28;20040;-80
2022/07/04 10:34:04;;;;;;;5.63;1.10;;;40.00;19.50;;;;;;5050628;28;20128;-79
2022/07/04 10:36:31;;;;;;;2.88;0.80;;;40.50;18.90;;;;;;5044975;28;20029;-79
2022/07/04 10:39:02;;;;;;;6.85;1.00;;;40.90;18.50;;;;;;5045988;28;20039;-81
2022/07/04 10:41:30;;;;;;;4.38;0.90;;;41.20;18.10;;;;;;5040996;28;20017;-81
2022/07/04 10:43:59;;;;;;;4.03;0.90;;;41.10;17.90;;;;;;5038648;28;20078;-84
2022/07/04 10:46:26;;;;;;;6.10;0.90;;;41.20;18.00;;;;;;5036514;28;20041;-79
2022/07/04 10:49:15;;;;;;;4.18;0.80;;;41.00;18.40;;;;;;5041155;28;20044;-77
2022/07/04 10:51:43;;;;;;;3.53;0.73;;;40.60;18.90;;;;;;5034708;28;20152;-77
2022/07/04 10:54:12;;;;;;;3.43;0.70;;;41.20;18.40;;;;;;5038121;28;20446;-79
2022/07/04 10:56:58;;;;;;;4.75;0.80;;;41.70;17.60;;;;;;5036023;28;20021;-80
2022/07/04 10:59:28;;;;;;;2.83;0.80;;;42.00;17.50;;;;;;5031802;28;20059;-76
2022/07/04 11:02:17;;;;;;;6.60;0.98;;;42.20;16.70;;;;;;5041840;28;20056;-77
2022/07/04 11:05:10;;;;;;;3.50;0.68;;;42.50;16.90;;;;;;5044635;28;20496;-77
2022/07/04 11:07:36;;;;;;;3.75;0.77;;;42.80;16.60;;;;;;5047382;28;20377;-76
2022/07/04 11:10:11;;;;;;;3.75;0.60;;;43.10;16.30;;;;;;5043858;28;20031;-76
2022/07/04 11:12:54;;;;;;;4.30;0.80;;;42.80;16.50;;;;;;5037462;28;20492;-75
2022/07/04 11:15:32;;;;;;;3.38;0.75;;;41.60;17.50;;;;;;5037422;28;20049;-76
2022/07/04 11:18:09;;;;;;;3.95;0.75;;;42.00;16.70;;;;;;5043358;28;20021;-77
2022/07/04 11:20:38;;;;;;;4.28;0.80;;;42.00;16.90;;;;;;5041378;28;20474;-77
2022/07/04 11:23:08;;;;;;;4.57;0.70;;;39.60;19.10;;;;;;5046321;28;20041;-77
2022/07/04 11:25:34;;;;;;;3.17;0.73;;;39.30;19.30;;;;;;5047161;28;20048;-76
2022/07/04 11:28:19;;;;;;;4.25;0.88;;;39.80;18.70;;;;;;5049319;28;20029;-77
2022/07/04 11:31:03;;;;;;;4.25;0.75;;;40.70;18.00;;;;;;5039587;28;20049;-77
2022/07/04 11:33:34;;;;;;;3.75;0.80;;;41.40;17.60;;;;;;5038947;28;20131;-77
2022/07/04 11:36:29;;;;;;;4.10;0.80;;;40.90;17.90;;;;;;5037114;28;20029;-77
2022/07/04 11:39:00;;;;;;;12.95;1.10;;;38.40;20.10;;;;;;5040594;28;20049;-77
2022/07/04 11:47:08;;;;;;;2.95;0.60;;;40.60;18.10;;;;;;5035287;28;20128;-78
2022/07/04 11:49:34;;;;;;;4.80;0.60;;;40.10;18.60;;;;;;5041213;28;20072;-77
2022/07/04 11:52:01;;;;;;;4.88;1.00;;;38.30;20.30;;;;;;5037919;28;20053;-78
2022/07/04 11:54:27;;;;;;;3.80;0.80;;;39.10;19.60;;;;;;5041686;28;20036;-78
2022/07/04 11:56:52;;;;;;;6.53;0.80;;;40.50;18.60;;;;;;5037659;28;20140;-77
2022/07/04 11:59:18;;;;;;;3.42;0.80;;;41.10;17.90;;;;;;5043958;28;20040;-77
2022/07/04 12:01:45;;;;;;;5.80;0.70;;;41.70;17.40;;;;;;5034212;28;20842;-77
2022/07/04 12:04:15;;;;;;;4.53;0.80;;;39.80;19.10;;;;;;5045905;28;20041;-77
2022/07/04 12:06:41;;;;;;;5.55;0.75;;;39.20;19.80;;;;;;5033761;28;20436;-77
2022/07/04 12:09:07;;;;;;;3.72;0.63;;;39.60;18.90;;;;;;5029938;28;20083;-78
2022/07/04 12:11:56;;;;;;;6.18;0.90;;;39.80;19.00;;;;;;5034356;28;20071;-78
2022/07/04 12:14:22;;;;;;;1.75;0.52;;;41.00;18.10;;;;;;5041865;28;20024;-77
2022/07/04 12:16:48;;;;;;;3.53;0.70;;;41.80;17.20;;;;;;5033784;28;20071;-77
2022/07/04 12:19:14;;;;;;;3.35;0.70;;;41.00;17.60;;;;;;5034774;28;20029;-77
2022/07/04 12:21:43;;;;;;;4.72;0.70;;;41.40;17.00;;;;;;5044108;28;20051;-77
2022/07/04 12:24:08;;;;;;;3.75;0.70;;;42.10;16.50;;;;;;5039269;28;20037;-77
2022/07/04 12:26:45;;;;;;;6.80;0.70;;;42.10;16.60;;;;;;5041329;28;20119;-79
2022/07/04 12:29:10;;;;;;;4.10;0.70;;;39.80;18.30;;;;;;5034855;28;20094;-79
2022/07/04 12:31:43;;;;;;;6.03;0.80;;;38.30;19.70;;;;;;5031591;28;20434;-80
2022/07/04 12:34:17;;;;;;;3.45;0.63;;;38.00;20.00;;;;;;5042553;28;20508;-79
2022/07/04 12:36:53;;;;;;;1.92;0.50;;;37.10;21.20;;;;;;5038519;28;20028;-79
2022/07/04 12:39:33;;;;;;;3.25;0.70;;;36.50;21.20;;;;;;5037503;28;20047;-79
2022/07/04 12:42:08;;;;;;;6.80;1.20;;;36.70;21.00;;;;;;5038761;28;20017;-79
2022/07/04 12:44:35;;;;;;;4.82;0.80;;;38.00;20.10;;;;;;5036651;28;20162;-79
2022/07/04 12:47:02;;;;;;;6.15;0.63;;;38.50;19.70;;;;;;5038441;28;20033;-79
2022/07/04 12:49:28;;;;;;;3.80;0.63;;;39.20;19.10;;;;;;5046906;28;20032;-79
2022/07/04 12:52:10;;;;;;;2.83;0.60;;;39.90;18.50;;;;;;5045602;28;20017;-79
2022/07/04 12:54:36;;;;;;;3.45;0.50;;;40.70;28.80;;;;;;5039202;28;20356;-79
2022/07/04 12:57:11;;;;;;;3.13;0.60;;;40.70;17.70;;;;;;5033045;28;20488;-79
2022/07/04 12:59:38;;;;;;;5.03;0.70;;;41.00;16.90;;;;;;5042040;28;20040;-79
2022/07/04 13:02:06;;;;;;;4.90;0.63;;;40.90;17.30;;;;;;5042818;28;20045;-78
2022/07/04 13:04:32;;;;;;;2.05;0.52;;;40.40;17.80;;;;;;5038112;28;20044;-79
2022/07/04 13:07:12;;;;;;;4.30;0.60;;;40.20;17.60;;;;;;5040420;28;20492;-79
2022/07/04 13:09:37;;;;;;;;;;;39.40;18.50;;;;;;5043403;28;20041;-78
2022/07/04 13:14:48;;;;;;;2.50;0.50;;;38.50;19.60;;;;;;5039423;28;20076;-78
2022/07/04 13:17:13;;;;;;;4.72;0.60;;;37.40;19.90;;;;;;5037696;28;20033;-78
2022/07/04 13:19:39;;;;;;;1.60;0.47;;;37.80;19.90;;;;;;5035430;28;20025;-79
2022/07/04 13:22:05;;;;;;;2.40;0.40;;;36.90;20.70;;;;;;5046599;28;20037;-78